LGSAOETB

Guest
Details From LGSA - Khania Souda
To OETB - TABUK
Flight Number -
Tags decoded
Created
Modified
Stats Distance 1,031 nm / 1,909 km
Max Altitude 0 ft / 0 m
Waypoints 6
Social Downloads 0
Likes 0
Share VATSIM

Download

Looking for another format? Having issues loading an existing format? Contact us
Advertisement - Login to hide

Notes

Requested: LGSA UJ65 SIT UL607 GESAD L551 DBA UM872 WEJ M449 OETB Unmatched points: UJ65 UL607 L551 UM872 M449

Route

LGSA SIT GESAD DBA WEJ OETB

ID Type Via Altitude Latitude Longitude Leg Dist Tot Dist Heading (true) Name
O LGSA APT - 0 ft / 0 m 35.53159˚ 24.15118˚ - 0 nm - Khania Souda
SIT VOR - 0 ft / 0 m 35.06842˚ 26.18906˚ 103 nm 103 nm 105° / 106° SITIA VOR-DME
GESAD FIX - 0 ft / 0 m 32.94472˚ 28.33500˚ 166 nm 270 nm 139° / 141° -
DBA VOR - 0 ft / 0 m 31.01139˚ 28.46694˚ 116 nm 386 nm 177° / 177° EL DABA VOR-DME
WEJ VOR - 0 ft / 0 m 26.17933˚ 36.48811˚ 512 nm 899 nm 122° / 126° WEJH VORTAC
O OETB APT - 0 ft / 0 m 28.37368˚ 36.62046˚ 131 nm 1031 nm 3° / 3° TABUK

Altitude Profile

Advertisement - Login to hide

Weather


0- 5 10 15 20 25 30 35+ Temperature / ° C

Clouds and Precipitation
Forecast for 2017-12-15 18:00 UTC. Updated 25 minutes ago

Ground ~20,000 ft ~40,000 ft Winds

LGSA

Details ICAO LGSA (CHQ)
Name Khania Souda
Region Greece
Timezone Europe/Athens (UTC+2.0)
Stats Elevation 490 ft / 149 m (AMSL)
Location 35.531592° 24.151184°
Runways 1
Magnetic Variation 4.283° E

METAR

LGSA 151520Z 27015KT 9999 FEW025 16/12 Q1017

Decode

TAF

TAF LGSA 151100Z 1512/1612 27020G30KT 9999 FEW025

Decode

Departure Runways

ID Width Length Bearing (true) Bearing (mag) Surface Threshold Offset Overrun Length
11 148 ft / 45 m 10,967 ft / 3,343 m 111.40° 107.12° Asphalt 0 ft / 0 m 735 ft / 224 m
29 148 ft / 45 m 10,967 ft / 3,343 m 291.42° 287.14° Asphalt 0 ft / 0 m 900 ft / 274 m

OETB

Details ICAO OETB (TUU)
Name TABUK
Region Saudi Arabia
Timezone Asia/Riyadh (UTC+3.0)
Stats Elevation 2,551 ft / 778 m (AMSL)
Location 28.373677° 36.620457°
Runways 2
Magnetic Variation 4.290° E

METAR

OETB 151500Z 01006KT CAVOK 16/02 Q1020 NOSIG

Decode

TAF

Not found

Destination Runways

ID Width Length Bearing (true) Bearing (mag) Surface Threshold Offset Overrun Length
06 148 ft / 45 m 10,984 ft / 3,348 m 64.87° 60.58° Asphalt 0 ft / 0 m 1,140 ft / 347 m
13 148 ft / 45 m 10,151 ft / 3,094 m 133.04° 128.75° Asphalt 0 ft / 0 m 984 ft / 300 m
24 148 ft / 45 m 10,984 ft / 3,348 m 244.89° 240.60° Asphalt 0 ft / 0 m 1,140 ft / 347 m
31 148 ft / 45 m 10,151 ft / 3,094 m 313.05° 308.76° Asphalt 0 ft / 0 m 984 ft / 300 m

Approach Navaids

Runway Type Ident Frequency Range Bearing (true) Bearing (mag) Slope Elevation
31 Localiser IPKS 111.90 MHz 18 nm / 33 km 312.35° 308.06° - 2,551 ft / 778 m (AMSL)
31 Glidescope IPKS 111.90 MHz 10 nm / 19 km 313.04° 308.75° 3.00° 2,533 ft / 772 m (AMSL)
31 DME IPKS 111.90 MHz 18 nm / 33 km - - - 2,551 ft / 778 m (AMSL)